Wellingborough, United Kingdom
Current Conditions -  °F | °C
As of 4:50 PM on Friday 19 Dec 2014 (Local Time) from EGTC Reporting Station
Clear Clear  
Wind Chill: 38°   Ceiling: Unl
Heat Index: 45°   Visibility: 6mi
Dew Point: 36°   Wind: 13mph
Humidity: 71%   Direction: 260°W
Pressure: 30.03"   Gusts: NA
Location:  52.3°N, 0.69°W
Report Text: EGTC 191650Z 26011KT CAVOK 07/02 Q1017
Loading
Personal Weather Stations






























Interactive Weather Map New forecast layout! Learn more

10-Day Weather Forecast

Advertisements
Track Severe Weather on mobile